Time;durP1;ratioP1;P1;durP2;ratioP2;P2;SDS_P1;SDS_P2;PMS_P1;PMS_P2;Temp;Humidity;BMP_temperature;BMP_pressure;BME280_temperature;BME280_humidity;BME280_pressure;Samples;Min_cycle;Max_cycle;Signal;HPM_P1;HPM_P2
2022/08/07 00:03:16;;;;;;;2.88;1.85;;;;;;;;;;10240293;29;20434;-86
2022/08/07 00:08:21;;;;;;;2.10;1.85;;;;;;;;;;10236839;29;20438;-86
2022/08/07 00:13:23;;;;;;;1.80;1.60;;;;;;;;;;10237341;28;20831;-86
2022/08/07 00:18:28;;;;;;;2.70;1.50;;;;;;;;;;10236535;28;20446;-86
2022/08/07 00:23:32;;;;;;;1.40;1.30;;;;;;;;;;10236831;28;20431;-86
2022/08/07 00:28:34;;;;;;;1.77;1.40;;;;;;;;;;10236902;28;20614;-86
2022/08/07 00:33:37;;;;;;;1.50;1.40;;;;;;;;;;10236469;29;20414;-86
2022/08/07 00:38:40;;;;;;;3.40;1.60;;;;;;;;;;10235574;29;20412;-86
2022/08/07 00:43:43;;;;;;;1.87;1.30;;;;;;;;;;10236502;28;20418;-86
2022/08/07 00:48:45;;;;;;;1.77;1.40;;;;;;;;;;10236139;29;20431;-86
2022/08/07 00:53:49;;;;;;;1.55;1.45;;;;;;;;;;10235003;28;20917;-87
2022/08/07 00:58:51;;;;;;;2.40;1.50;;;;;;;;;;10235554;29;20750;-87
2022/08/07 01:03:53;;;;;;;2.50;1.33;;;;;;;;;;10235978;29;20742;-86
2022/08/07 01:08:58;;;;;;;1.95;1.35;;;;;;;;;;10235303;28;20443;-86
2022/08/07 01:14:00;;;;;;;2.88;1.30;;;;;;;;;;10242175;29;20413;-87
2022/08/07 01:19:03;;;;;;;2.37;1.00;;;;;;;;;;10236757;29;20410;-87
2022/08/07 01:24:07;;;;;;;1.43;1.20;;;;;;;;;;10236390;28;20427;-87
2022/08/07 01:29:09;;;;;;;1.30;1.20;;;;;;;;;;10236331;28;20442;-87
2022/08/07 01:34:12;;;;;;;2.63;1.20;;;;;;;;;;10236444;29;20409;-87
2022/08/07 01:39:16;;;;;;;3.17;1.23;;;;;;;;;;10234739;28;20451;-87
2022/08/07 01:44:18;;;;;;;2.38;1.50;;;;;;;;;;10235710;29;20889;-87
2022/08/07 01:49:19;;;;;;;2.43;1.50;;;;;;;;;;10235958;29;20728;-87
2022/08/07 01:54:27;;;;;;;3.10;1.80;;;;;;;;;;10235811;28;20503;-87
2022/08/07 01:59:36;;;;;;;1.70;1.60;;;;;;;;;;10232499;29;20419;-87
2022/08/07 02:04:43;;;;;;;1.87;1.77;;;;;;;;;;10235826;29;20506;-86
2022/08/07 02:09:48;;;;;;;2.55;1.60;;;;;;;;;;10235641;28;20434;-86
2022/08/07 02:14:53;;;;;;;2.57;1.70;;;;;;;;;;10235417;29;20404;-86
2022/08/07 02:19:57;;;;;;;2.23;1.90;;;;;;;;;;10231873;29;20416;-86
2022/08/07 02:25:01;;;;;;;5.03;1.70;;;;;;;;;;10235358;28;20430;-86
2022/08/07 02:30:05;;;;;;;3.40;2.05;;;;;;;;;;10235165;29;20988;-86
2022/08/07 02:35:09;;;;;;;2.83;2.00;;;;;;;;;;10234936;29;20404;-86
2022/08/07 02:40:13;;;;;;;2.55;2.35;;;;;;;;;;10236006;28;20840;-86
2022/08/07 02:45:19;;;;;;;2.78;2.40;;;;;;;;;;10241875;29;20424;-86
2022/08/07 02:50:21;;;;;;;3.25;2.58;;;;;;;;;;10241394;29;20426;-85
2022/08/07 02:55:27;;;;;;;3.70;2.33;;;;;;;;;;10241785;28;20414;-85
2022/08/07 03:00:30;;;;;;;3.63;2.70;;;;;;;;;;10237616;29;20503;-85
2022/08/07 03:05:35;;;;;;;3.65;2.42;;;;;;;;;;10241931;29;20719;-86
2022/08/07 03:10:39;;;;;;;3.17;2.50;;;;;;;;;;10241937;28;20416;-85
2022/08/07 03:15:41;;;;;;;4.10;2.70;;;;;;;;;;10240864;29;20430;-86
2022/08/07 03:20:44;;;;;;;4.13;2.95;;;;;;;;;;10241235;29;20845;-86
2022/08/07 03:25:48;;;;;;;3.20;2.60;;;;;;;;;;10240450;28;20426;-86
2022/08/07 03:31:17;;;;;;;4.85;2.97;;;;;;;;;;10240361;29;20751;-86
2022/08/07 03:36:14;;;;;;;3.77;2.90;;;;;;;;;;10238543;29;20404;-86
2022/08/07 03:41:18;;;;;;;3.78;2.50;;;;;;;;;;10240087;28;20420;-86
2022/08/07 03:46:20;;;;;;;3.57;2.80;;;;;;;;;;10239406;29;20490;-85
2022/08/07 03:51:23;;;;;;;3.53;2.92;;;;;;;;;;10238484;28;20523;-86
2022/08/07 03:56:27;;;;;;;3.15;2.70;;;;;;;;;;10239881;28;20416;-86
2022/08/07 04:01:30;;;;;;;3.38;2.50;;;;;;;;;;10239601;29;20472;-86
2022/08/07 04:06:33;;;;;;;2.50;2.30;;;;;;;;;;10242464;29;20502;-87
2022/08/07 04:11:37;;;;;;;3.10;2.40;;;;;;;;;;10240714;28;20431;-86
2022/08/07 04:16:39;;;;;;;3.35;2.60;;;;;;;;;;10239264;29;20412;-86
2022/08/07 04:21:42;;;;;;;2.97;2.70;;;;;;;;;;10238622;28;20741;-86
2022/08/07 04:26:45;;;;;;;2.80;2.50;;;;;;;;;;10237761;28;20707;-86
2022/08/07 04:31:48;;;;;;;3.00;2.50;;;;;;;;;;10238545;29;20408;-86
2022/08/07 04:36:52;;;;;;;3.08;2.30;;;;;;;;;;10238662;29;20436;-86
2022/08/07 04:41:55;;;;;;;3.23;2.53;;;;;;;;;;10239177;28;20408;-86
2022/08/07 04:47:05;;;;;;;3.20;2.47;;;;;;;;;;10236105;29;20432;-86
2022/08/07 04:52:14;;;;;;;3.47;2.25;;;;;;;;;;10240175;28;20516;-85
2022/08/07 04:57:26;;;;;;;5.00;2.80;;;;;;;;;;10237101;28;20435;-86
2022/08/07 05:02:32;;;;;;;3.90;3.42;;;;;;;;;;10230539;28;20958;-86
2022/08/07 05:07:40;;;;;;;4.95;3.50;;;;;;;;;;10236966;29;20454;-86
2022/08/07 05:12:49;;;;;;;4.85;3.38;;;;;;;;;;10236894;28;20415;-85
2022/08/07 05:17:56;;;;;;;4.22;3.30;;;;;;;;;;10235708;29;20415;-85
2022/08/07 05:23:03;;;;;;;4.10;3.38;;;;;;;;;;10233254;28;20503;-85
2022/08/07 05:28:08;;;;;;;4.93;3.60;;;;;;;;;;10237477;28;20435;-85
2022/08/07 05:33:13;;;;;;;4.23;3.40;;;;;;;;;;10236617;29;20772;-86
2022/08/07 05:38:16;;;;;;;4.50;3.35;;;;;;;;;;10234460;29;20996;-86
2022/08/07 05:43:21;;;;;;;3.93;3.40;;;;;;;;;;10232945;28;20408;-85
2022/08/07 05:48:23;;;;;;;3.70;3.13;;;;;;;;;;10232660;29;20434;-85
2022/08/07 05:53:25;;;;;;;3.60;2.70;;;;;;;;;;10233415;28;20408;-86
2022/08/07 05:58:30;;;;;;;3.08;2.78;;;;;;;;;;10230926;28;20416;-85
2022/08/07 06:03:32;;;;;;;4.88;2.95;;;;;;;;;;10236719;29;20432;-86
2022/08/07 06:08:34;;;;;;;3.55;2.83;;;;;;;;;;10228577;29;20436;-86
2022/08/07 06:13:37;;;;;;;3.83;2.75;;;;;;;;;;10235659;28;20420;-87
2022/08/07 06:18:41;;;;;;;4.07;2.72;;;;;;;;;;10238218;28;20495;-86
2022/08/07 06:23:44;;;;;;;4.88;2.80;;;;;;;;;;10241467;28;20415;-85
2022/08/07 06:28:52;;;;;;;3.28;2.80;;;;;;;;;;10241793;29;20435;-86
2022/08/07 06:33:54;;;;;;;3.30;2.93;;;;;;;;;;10241945;29;20408;-86
2022/08/07 06:38:55;;;;;;;2.72;2.53;;;;;;;;;;10240577;28;20407;-87
2022/08/07 06:44:00;;;;;;;3.08;2.42;;;;;;;;;;10238287;29;20407;-86
2022/08/07 06:49:02;;;;;;;3.90;2.45;;;;;;;;;;10241333;29;20529;-86
2022/08/07 06:54:05;;;;;;;3.22;2.63;;;;;;;;;;10240477;28;20446;-86
2022/08/07 06:59:12;;;;;;;3.35;2.50;;;;;;;;;;10240839;29;20412;-87
2022/08/07 07:04:14;;;;;;;2.40;2.20;;;;;;;;;;10240998;29;20407;-86
2022/08/07 07:09:18;;;;;;;2.45;2.00;;;;;;;;;;10241030;28;20435;-87
2022/08/07 07:14:26;;;;;;;2.38;2.17;;;;;;;;;;10241203;29;20422;-86
2022/08/07 07:19:33;;;;;;;2.40;2.20;;;;;;;;;;10236764;29;20412;-87
2022/08/07 07:24:37;;;;;;;2.30;2.10;;;;;;;;;;10239744;28;20412;-87
2022/08/07 07:29:45;;;;;;;2.40;2.20;;;;;;;;;;10239620;28;20823;-87
2022/08/07 07:34:49;;;;;;;2.30;2.13;;;;;;;;;;10239879;29;20404;-87
2022/08/07 07:39:56;;;;;;;2.55;2.33;;;;;;;;;;10238996;28;20507;-87
2022/08/07 07:45:01;;;;;;;2.95;2.08;;;;;;;;;;10236282;29;20468;-87
2022/08/07 07:50:03;;;;;;;2.50;2.30;;;;;;;;;;10239591;29;20431;-87
2022/08/07 07:55:07;;;;;;;2.27;2.07;;;;;;;;;;10241393;28;20412;-86
2022/08/07 08:00:13;;;;;;;2.45;2.20;;;;;;;;;;10242268;29;20750;-87
2022/08/07 08:05:17;;;;;;;2.27;2.17;;;;;;;;;;10241135;29;20415;-87
2022/08/07 08:10:20;;;;;;;2.30;2.10;;;;;;;;;;10240398;28;21093;-87
2022/08/07 08:15:24;;;;;;;2.20;2.00;;;;;;;;;;10239305;29;20404;-87
2022/08/07 08:20:27;;;;;;;2.38;2.17;;;;;;;;;;10237769;29;20423;-87
2022/08/07 08:30:58;;;;;;;2.00;1.90;;;;;;;;;;10238083;29;20404;-87
2022/08/07 08:36:01;;;;;;;2.05;1.95;;;;;;;;;;10234264;29;20463;-87
2022/08/07 08:41:10;;;;;;;2.13;2.00;;;;;;;;;;10236727;28;20853;-87
2022/08/07 08:46:21;;;;;;;2.30;2.10;;;;;;;;;;10258073;29;20435;-87
2022/08/07 08:51:28;;;;;;;2.60;2.30;;;;;;;;;;10260512;29;20440;-87
2022/08/07 08:56:36;;;;;;;2.80;2.60;;;;;;;;;;10233301;28;20841;-87
2022/08/07 09:01:44;;;;;;;3.88;3.58;;;;;;;;;;10236444;29;20416;-87
2022/08/07 09:06:55;;;;;;;3.90;3.60;;;;;;;;;;10236505;29;20432;-86
2022/08/07 09:12:11;;;;;;;3.45;3.15;;;;;;;;;;10231835;28;20975;-87
2022/08/07 09:17:26;;;;;;;3.42;3.17;;;;;;;;;;10236048;29;20404;-87
2022/08/07 09:22:52;;;;;;;3.70;3.30;;;;;;;;;;10232255;29;20412;-86
2022/08/07 09:28:01;;;;;;;3.60;3.30;;;;;;;;;;10235452;28;20937;-87
2022/08/07 09:33:15;;;;;;;3.50;3.20;;;;;;;;;;10235395;29;20556;-87
2022/08/07 09:38:31;;;;;;;3.55;3.20;;;;;;;;;;10236019;28;20423;-86
2022/08/07 09:43:53;;;;;;;3.97;3.08;;;;;;;;;;10235234;29;20409;-87
2022/08/07 09:49:06;;;;;;;5.03;3.30;;;;;;;;;;10234979;28;20446;-87
2022/08/07 09:54:15;;;;;;;3.40;3.10;;;;;;;;;;10240848;28;20478;-86
2022/08/07 09:59:33;;;;;;;2.90;2.70;;;;;;;;;;10243343;29;20437;-86
2022/08/07 10:05:06;;;;;;;3.35;3.03;;;;;;;;;;10244088;29;20455;-89
2022/08/07 10:10:20;;;;;;;3.22;2.20;;;;;;;;;;10240328;28;20510;-87
2022/08/07 10:15:53;;;;;;;2.60;2.30;;;;;;;;;;10242484;29;20430;-86
2022/08/07 10:21:10;;;;;;;2.97;2.33;;;;;;;;;;10242884;29;20423;-86
2022/08/07 10:26:27;;;;;;;2.70;2.35;;;;;;;;;;10240501;28;20411;-87
2022/08/07 10:31:46;;;;;;;2.30;2.10;;;;;;;;;;10238652;29;20419;-88
2022/08/07 10:37:10;;;;;;;2.30;2.10;;;;;;;;;;10242079;29;20784;-87
2022/08/07 10:42:26;;;;;;;4.03;2.10;;;;;;;;;;10239937;28;20420;-87
2022/08/07 10:47:35;;;;;;;2.42;2.10;;;;;;;;;;10237612;29;20454;-88
2022/08/07 10:52:48;;;;;;;2.40;2.20;;;;;;;;;;10241477;29;20947;-86
2022/08/07 10:58:03;;;;;;;2.50;2.30;;;;;;;;;;10240088;29;20416;-86
2022/08/07 11:03:11;;;;;;;2.40;2.20;;;;;;;;;;10238235;28;20471;-86
2022/08/07 11:08:25;;;;;;;3.35;2.42;;;;;;;;;;10241161;29;20478;-86
2022/08/07 11:13:36;;;;;;;3.15;2.80;;;;;;;;;;10238349;28;20424;-87
2022/08/07 11:18:47;;;;;;;2.70;2.50;;;;;;;;;;10240558;29;20427;-87
2022/08/07 11:23:55;;;;;;;4.75;2.80;;;;;;;;;;10240480;28;20894;-87
2022/08/07 11:29:02;;;;;;;3.10;2.70;;;;;;;;;;10239449;29;20461;-86
2022/08/07 11:34:13;;;;;;;3.35;2.90;;;;;;;;;;10240286;29;20566;-86
2022/08/07 11:39:26;;;;;;;3.28;2.90;;;;;;;;;;10239894;28;20507;-86
2022/08/07 11:44:39;;;;;;;3.40;3.10;;;;;;;;;;10236291;29;20416;-87
2022/08/07 11:49:58;;;;;;;3.33;3.03;;;;;;;;;;10239353;29;20952;-87
2022/08/07 11:55:09;;;;;;;3.20;2.90;;;;;;;;;;10236245;28;20543;-85
2022/08/07 12:00:15;;;;;;;5.95;3.10;;;;;;;;;;10239033;29;20404;-87
2022/08/07 12:05:26;;;;;;;3.83;3.45;;;;;;;;;;10238749;29;20483;-87
2022/08/07 12:10:37;;;;;;;4.50;4.05;;;;;;;;;;10247741;28;20503;-87
2022/08/07 12:15:43;;;;;;;4.30;3.90;;;;;;;;;;10244323;28;21361;-86
2022/08/07 12:20:48;;;;;;;4.68;4.28;;;;;;;;;;10238044;29;20412;-87
2022/08/07 12:25:56;;;;;;;4.82;4.35;;;;;;;;;;10238281;28;20420;-87
2022/08/07 12:31:05;;;;;;;4.63;4.20;;;;;;;;;;10233535;29;20504;-87
2022/08/07 12:36:09;;;;;;;4.70;4.22;;;;;;;;;;10237897;29;20759;-87
2022/08/07 12:41:13;;;;;;;4.85;4.40;;;;;;;;;;10237251;28;20415;-86
2022/08/07 12:46:35;;;;;;;4.93;4.43;;;;;;;;;;10236971;29;20416;-87
2022/08/07 12:51:41;;;;;;;5.07;4.37;;;;;;;;;;10234374;29;20440;-87
2022/08/07 12:56:48;;;;;;;4.50;4.10;;;;;;;;;;10236446;28;20671;-87
2022/08/07 13:02:01;;;;;;;6.40;4.65;;;;;;;;;;10236870;29;20412;-87
2022/08/07 13:07:17;;;;;;;4.80;3.88;;;;;;;;;;10233952;29;20430;-87
2022/08/07 13:12:31;;;;;;;4.23;3.83;;;;;;;;;;10236075;28;20426;-87
2022/08/07 13:17:42;;;;;;;3.80;3.50;;;;;;;;;;10233289;29;20901;-87
2022/08/07 13:22:50;;;;;;;4.23;3.83;;;;;;;;;;10235864;28;20427;-87
2022/08/07 13:27:58;;;;;;;4.03;3.67;;;;;;;;;;10236327;28;20733;-88
2022/08/07 13:33:08;;;;;;;3.30;3.00;;;;;;;;;;10232077;29;20412;-87
2022/08/07 13:38:17;;;;;;;3.40;3.10;;;;;;;;;;10236064;29;20873;-88
2022/08/07 13:43:21;;;;;;;3.30;3.00;;;;;;;;;;10235601;28;20424;-87
2022/08/07 13:48:25;;;;;;;3.47;2.90;;;;;;;;;;10235302;29;20427;-87
2022/08/07 13:53:31;;;;;;;3.20;3.00;;;;;;;;;;10231598;28;20416;-88
2022/08/07 14:04:01;;;;;;;2.85;2.63;;;;;;;;;;10231911;29;20885;-87
2022/08/07 14:09:04;;;;;;;2.35;2.15;;;;;;;;;;10234825;28;20428;-88
2022/08/07 14:14:11;;;;;;;2.78;2.58;;;;;;;;;;10235979;28;20416;-87
2022/08/07 14:19:18;;;;;;;2.42;2.22;;;;;;;;;;10234823;29;20412;-88
2022/08/07 14:24:33;;;;;;;3.38;2.50;;;;;;;;;;10237731;28;20431;-88
2022/08/07 14:29:40;;;;;;;2.63;2.42;;;;;;;;;;10234457;29;20714;-88
2022/08/07 14:34:45;;;;;;;2.25;2.10;;;;;;;;;;10237424;29;20502;-88
2022/08/07 14:39:48;;;;;;;3.17;2.20;;;;;;;;;;10243957;28;20503;-88
2022/08/07 14:44:54;;;;;;;2.60;2.40;;;;;;;;;;10245367;29;20491;-87
2022/08/07 14:49:57;;;;;;;2.40;2.30;;;;;;;;;;10239988;29;20427;-87
2022/08/07 14:55:01;;;;;;;2.45;2.28;;;;;;;;;;10244502;28;20424;-88
2022/08/07 15:00:07;;;;;;;2.47;2.28;;;;;;;;;;10272746;29;20424;-87
2022/08/07 15:05:14;;;;;;;2.40;2.20;;;;;;;;;;10261734;29;20913;-87
2022/08/07 15:10:21;;;;;;;2.38;2.17;;;;;;;;;;10243575;28;20459;-88
2022/08/07 15:15:32;;;;;;;2.88;2.20;;;;;;;;;;10243779;29;20416;-88
2022/08/07 15:20:38;;;;;;;2.30;2.10;;;;;;;;;;10239688;29;20408;-87
2022/08/07 15:25:47;;;;;;;2.30;2.10;;;;;;;;;;10242571;28;21182;-88
2022/08/07 15:30:51;;;;;;;2.30;2.10;;;;;;;;;;10242759;29;20434;-88
2022/08/07 15:35:55;;;;;;;2.20;2.10;;;;;;;;;;10242423;29;20416;-88
2022/08/07 15:41:00;;;;;;;2.30;2.10;;;;;;;;;;10239127;28;20412;-87
2022/08/07 15:46:16;;;;;;;2.30;2.10;;;;;;;;;;10244217;29;20495;-88
2022/08/07 15:51:20;;;;;;;2.30;2.20;;;;;;;;;;10250838;28;20432;-88
2022/08/07 15:56:24;;;;;;;2.38;2.10;;;;;;;;;;10241325;28;20420;-88
2022/08/07 16:01:31;;;;;;;3.13;2.17;;;;;;;;;;10241906;28;20417;-89
2022/08/07 16:06:36;;;;;;;2.30;2.10;;;;;;;;;;10238629;29;20404;-87
2022/08/07 16:11:55;;;;;;;2.30;2.20;;;;;;;;;;10241270;28;20428;-87
2022/08/07 16:17:12;;;;;;;2.42;2.22;;;;;;;;;;10237398;29;20407;-87
2022/08/07 16:22:42;;;;;;;2.85;2.35;;;;;;;;;;10240928;28;20412;-87
2022/08/07 16:27:51;;;;;;;2.65;2.45;;;;;;;;;;10238991;28;20439;-87
2022/08/07 16:33:00;;;;;;;2.63;2.42;;;;;;;;;;10240079;29;20408;-87
2022/08/07 16:38:19;;;;;;;2.60;2.40;;;;;;;;;;10237146;29;20400;-87
2022/08/07 16:43:43;;;;;;;3.75;2.67;;;;;;;;;;10240282;28;20422;-87
2022/08/07 16:49:23;;;;;;;2.63;2.43;;;;;;;;;;10231921;29;20438;-87
2022/08/07 16:54:49;;;;;;;2.80;2.60;;;;;;;;;;10199654;29;20429;-88
2022/08/07 16:59:57;;;;;;;2.80;2.60;;;;;;;;;;10199338;29;20517;-88
2022/08/07 17:05:10;;;;;;;2.72;2.53;;;;;;;;;;10192653;29;20418;-89
2022/08/07 17:10:21;;;;;;;2.80;2.60;;;;;;;;;;10200162;29;20434;-88
2022/08/07 17:15:35;;;;;;;3.35;2.78;;;;;;;;;;10200065;29;20424;-88
2022/08/07 17:20:40;;;;;;;3.15;2.80;;;;;;;;;;10196378;29;20710;-88
2022/08/07 17:25:55;;;;;;;2.97;2.78;;;;;;;;;;10198654;29;20428;-88
2022/08/07 17:31:04;;;;;;;3.20;2.90;;;;;;;;;;10194820;29;20439;-88
2022/08/07 17:36:13;;;;;;;2.95;2.60;;;;;;;;;;10199099;29;20418;-86
2022/08/07 17:41:18;;;;;;;2.53;2.33;;;;;;;;;;10199657;29;20444;-88
2022/08/07 17:46:26;;;;;;;4.35;2.30;;;;;;;;;;10201015;29;20505;-88
2022/08/07 17:51:38;;;;;;;2.80;2.13;;;;;;;;;;10223422;28;20721;-88
2022/08/07 17:56:47;;;;;;;2.25;2.05;;;;;;;;;;10237499;28;20438;-88
2022/08/07 18:01:57;;;;;;;3.00;2.30;;;;;;;;;;10238290;29;20416;-88
2022/08/07 18:07:14;;;;;;;2.20;2.00;;;;;;;;;;10234196;29;20521;-88
2022/08/07 18:12:27;;;;;;;2.37;2.17;;;;;;;;;;10241083;28;20430;-86
2022/08/07 18:17:34;;;;;;;2.00;1.90;;;;;;;;;;10241344;29;20495;-88
2022/08/07 18:22:48;;;;;;;2.10;2.00;;;;;;;;;;10245411;29;20490;-88
2022/08/07 18:28:11;;;;;;;2.90;2.03;;;;;;;;;;10244859;28;20788;-88
2022/08/07 18:33:43;;;;;;;1.90;1.80;;;;;;;;;;10244055;29;20420;-88
2022/08/07 18:39:06;;;;;;;1.80;1.70;;;;;;;;;;10243326;29;20416;-88
2022/08/07 18:44:22;;;;;;;2.20;2.00;;;;;;;;;;10242550;29;20414;-88
2022/08/07 18:49:39;;;;;;;4.93;1.80;;;;;;;;;;10244487;29;20792;-87
2022/08/07 18:54:53;;;;;;;2.03;1.60;;;;;;;;;;10242340;28;20427;-89
2022/08/07 19:00:05;;;;;;;1.30;1.20;;;;;;;;;;10243937;29;20499;-88
2022/08/07 19:05:13;;;;;;;1.40;1.30;;;;;;;;;;10241701;29;20528;-88
2022/08/07 19:10:21;;;;;;;1.40;1.30;;;;;;;;;;10243910;28;20442;-88
2022/08/07 19:15:32;;;;;;;1.70;1.60;;;;;;;;;;10243461;29;20930;-88
2022/08/07 19:20:42;;;;;;;1.88;1.60;;;;;;;;;;10240852;29;20412;-88
2022/08/07 19:25:49;;;;;;;2.07;1.60;;;;;;;;;;10257704;28;20419;-88
2022/08/07 19:30:54;;;;;;;1.70;1.60;;;;;;;;;;10244958;29;20426;-88
2022/08/07 19:35:57;;;;;;;2.90;2.10;;;;;;;;;;10243157;29;20411;-88
2022/08/07 19:41:02;;;;;;;1.70;1.60;;;;;;;;;;10238350;28;20847;-88
2022/08/07 19:46:03;;;;;;;2.55;1.70;;;;;;;;;;10242496;29;20408;-88
2022/08/07 19:51:06;;;;;;;1.65;1.45;;;;;;;;;;10242389;29;20976;-88
2022/08/07 19:56:11;;;;;;;1.60;1.50;;;;;;;;;;10241636;28;20488;-88
2022/08/07 20:01:16;;;;;;;2.08;1.50;;;;;;;;;;10242186;29;20414;-88
2022/08/07 20:06:20;;;;;;;1.80;1.42;;;;;;;;;;10242579;28;20511;-88
2022/08/07 20:11:28;;;;;;;1.80;1.20;;;;;;;;;;10241472;28;20424;-88
2022/08/07 20:16:33;;;;;;;1.40;1.30;;;;;;;;;;10237914;29;20408;-88
2022/08/07 20:21:37;;;;;;;1.30;1.20;;;;;;;;;;10254742;28;20412;-88
2022/08/07 20:26:48;;;;;;;2.92;1.40;;;;;;;;;;10244431;28;20507;-88
2022/08/07 20:31:51;;;;;;;1.50;1.20;;;;;;;;;;10242466;29;20436;-88
2022/08/07 20:36:54;;;;;;;1.33;1.23;;;;;;;;;;10241853;28;20416;-88
2022/08/07 20:41:58;;;;;;;1.77;1.33;;;;;;;;;;10242226;28;20416;-88
2022/08/07 20:47:05;;;;;;;1.40;1.30;;;;;;;;;;10238938;29;20404;-88
2022/08/07 20:52:08;;;;;;;3.30;1.20;;;;;;;;;;10240654;29;21124;-88
2022/08/07 20:57:12;;;;;;;1.63;1.30;;;;;;;;;;10240907;28;20427;-88
2022/08/07 21:07:34;;;;;;;1.20;1.10;;;;;;;;;;10237194;28;20844;-88
2022/08/07 21:12:39;;;;;;;2.45;1.38;;;;;;;;;;10240461;28;20766;-88
2022/08/07 21:17:48;;;;;;;2.13;1.33;;;;;;;;;;10240732;29;20480;-88
2022/08/07 21:22:54;;;;;;;1.67;1.30;;;;;;;;;;10241710;29;20423;-88
2022/08/07 21:28:07;;;;;;;1.40;1.30;;;;;;;;;;10241205;28;20459;-89
2022/08/07 21:33:16;;;;;;;1.60;1.20;;;;;;;;;;10237840;29;20527;-88
2022/08/07 21:38:24;;;;;;;1.30;1.20;;;;;;;;;;10240226;28;20438;-87
2022/08/07 21:43:38;;;;;;;2.30;1.60;;;;;;;;;;10240494;28;20447;-87
2022/08/07 21:48:50;;;;;;;1.70;1.50;;;;;;;;;;10239717;29;20416;-87
2022/08/07 21:53:54;;;;;;;2.00;1.80;;;;;;;;;;10239287;28;20427;-87
2022/08/07 21:59:03;;;;;;;1.98;1.75;;;;;;;;;;10239786;29;20512;-87
2022/08/07 22:04:08;;;;;;;1.85;1.73;;;;;;;;;;10236843;29;20412;-87
2022/08/07 22:09:15;;;;;;;2.10;1.60;;;;;;;;;;10239598;28;20460;-88
2022/08/07 22:14:18;;;;;;;2.60;1.70;;;;;;;;;;10240114;29;20893;-87
2022/08/07 22:19:26;;;;;;;1.75;1.65;;;;;;;;;;10239092;29;20400;-88
2022/08/07 22:24:33;;;;;;;2.00;1.80;;;;;;;;;;10235997;28;20419;-87
2022/08/07 22:29:38;;;;;;;2.13;1.60;;;;;;;;;;10239218;29;20522;-87
2022/08/07 22:34:45;;;;;;;1.70;1.60;;;;;;;;;;10239368;29;21038;-87
2022/08/07 22:40:01;;;;;;;2.13;1.75;;;;;;;;;;10238696;28;20562;-87
2022/08/07 22:45:07;;;;;;;1.60;1.50;;;;;;;;;;10236431;29;20496;-87
2022/08/07 22:50:36;;;;;;;2.03;1.83;;;;;;;;;;10239270;29;20439;-87
2022/08/07 22:55:57;;;;;;;2.00;1.90;;;;;;;;;;10229538;28;20443;-87
2022/08/07 23:01:17;;;;;;;2.13;1.80;;;;;;;;;;10241083;29;20789;-86
2022/08/07 23:06:42;;;;;;;2.40;1.73;;;;;;;;;;10253319;29;20487;-85
2022/08/07 23:11:55;;;;;;;2.30;1.85;;;;;;;;;;10247495;28;20519;-88
2022/08/07 23:17:25;;;;;;;1.70;1.53;;;;;;;;;;10245477;29;20419;-86
2022/08/07 23:22:42;;;;;;;3.35;1.83;;;;;;;;;;10242344;28;20504;-88
2022/08/07 23:28:15;;;;;;;3.28;1.90;;;;;;;;;;10241802;29;20491;-88
2022/08/07 23:33:35;;;;;;;2.65;1.75;;;;;;;;;;10245336;29;20467;-88
2022/08/07 23:38:55;;;;;;;2.35;1.88;;;;;;;;;;10241361;29;20501;-88
2022/08/07 23:44:18;;;;;;;1.60;1.50;;;;;;;;;;10244453;29;20496;-88
2022/08/07 23:49:52;;;;;;;2.10;1.70;;;;;;;;;;10243156;29;20421;-87
2022/08/07 23:54:59;;;;;;;1.80;1.70;;;;;;;;;;10229482;28;20458;-88
